createdAt,value
2022-10-07T00:00:55.841Z,10.10
2022-10-07T00:03:25.801Z,10.10
2022-10-07T00:06:04.546Z,10.00
2022-10-07T00:08:32.586Z,10.00
2022-10-07T00:11:04.985Z,10.00
2022-10-07T00:13:32.960Z,9.90
2022-10-07T00:16:07.146Z,9.90
2022-10-07T00:18:35.450Z,9.90
2022-10-07T00:21:04.619Z,9.90
2022-10-07T00:23:32.113Z,9.80
2022-10-07T00:26:05.252Z,9.90
2022-10-07T00:28:33.652Z,9.90
2022-10-07T00:31:03.100Z,9.90
2022-10-07T00:33:35.975Z,9.80
2022-10-07T00:36:07.025Z,9.80
2022-10-07T00:38:34.356Z,9.70
2022-10-07T00:41:03.832Z,9.70
2022-10-07T00:43:32.027Z,9.70
2022-10-07T00:46:05.045Z,9.70
2022-10-07T00:48:36.460Z,9.70
2022-10-07T00:51:04.108Z,9.60
2022-10-07T00:53:36.793Z,9.60
2022-10-07T00:56:07.581Z,9.60
2022-10-07T00:58:38.020Z,9.60
2022-10-07T01:01:07.569Z,9.60
2022-10-07T01:03:37.353Z,9.60
2022-10-07T01:06:05.603Z,9.50
2022-10-07T01:08:33.822Z,9.50
2022-10-07T01:11:15.375Z,9.50
2022-10-07T01:13:56.920Z,9.50
2022-10-07T01:16:32.823Z,9.50
2022-10-07T01:19:13.523Z,9.50
2022-10-07T01:21:46.109Z,9.50
2022-10-07T01:24:26.167Z,9.40
2022-10-07T01:27:01.251Z,9.40
2022-10-07T01:29:36.817Z,9.40
2022-10-07T01:32:10.070Z,9.30
2022-10-07T01:34:38.973Z,9.30
2022-10-07T01:37:09.931Z,9.30
2022-10-07T01:39:42.256Z,9.20
2022-10-07T01:42:11.812Z,9.20
2022-10-07T01:44:40.142Z,9.20
2022-10-07T01:47:07.545Z,9.10
2022-10-07T01:49:34.934Z,9.10
2022-10-07T01:52:27.979Z,9.10
2022-10-07T01:55:13.095Z,9.10
2022-10-07T01:57:52.831Z,9.10
2022-10-07T02:00:22.661Z,9.10
2022-10-07T02:03:07.007Z,9.10
2022-10-07T02:05:46.788Z,9.00
2022-10-07T02:08:27.928Z,9.00
2022-10-07T02:11:07.794Z,9.00
2022-10-07T02:13:41.860Z,9.00
2022-10-07T02:16:19.480Z,8.90
2022-10-07T02:18:50.361Z,8.90
2022-10-07T02:21:22.066Z,8.90
2022-10-07T02:23:49.976Z,8.80
2022-10-07T02:26:21.143Z,8.80
2022-10-07T02:28:52.426Z,8.70
2022-10-07T02:31:24.717Z,8.70
2022-10-07T02:33:54.367Z,8.70
2022-10-07T02:36:27.872Z,8.70
2022-10-07T02:38:56.311Z,8.70
2022-10-07T02:41:35.352Z,8.70
2022-10-07T02:44:26.804Z,8.70
2022-10-07T02:47:01.028Z,8.70
2022-10-07T02:49:29.938Z,8.70
2022-10-07T02:52:00.224Z,8.70
2022-10-07T02:54:34.721Z,8.60
2022-10-07T02:57:03.379Z,8.60
2022-10-07T02:59:33.130Z,8.60
2022-10-07T03:02:03.879Z,8.60
2022-10-07T03:04:32.152Z,8.60
2022-10-07T03:07:01.220Z,8.50
2022-10-07T03:09:30.674Z,8.50
2022-10-07T03:11:58.289Z,8.50
2022-10-07T03:14:25.679Z,8.50
2022-10-07T03:16:54.529Z,8.40
2022-10-07T03:19:27.051Z,8.40
2022-10-07T03:21:57.260Z,8.40
2022-10-07T03:24:25.235Z,8.40
2022-10-07T03:26:53.445Z,8.40
2022-10-07T03:29:20.969Z,8.40
2022-10-07T03:31:49.238Z,8.40
2022-10-07T03:34:18.260Z,8.40
2022-10-07T03:36:48.175Z,8.40
2022-10-07T03:39:16.810Z,8.30
2022-10-07T03:41:45.595Z,8.30
2022-10-07T03:44:14.570Z,8.30
2022-10-07T03:46:42.116Z,8.30
2022-10-07T03:49:09.959Z,8.30
2022-10-07T03:51:40.021Z,8.30
2022-10-07T03:54:09.604Z,8.30
2022-10-07T03:56:37.721Z,8.20
2022-10-07T03:59:05.233Z,8.20
2022-10-07T04:01:32.867Z,8.20
2022-10-07T04:04:01.737Z,8.20
2022-10-07T04:06:33.846Z,8.20
2022-10-07T04:09:06.344Z,8.20
2022-10-07T04:11:35.034Z,8.10
2022-10-07T04:14:02.689Z,8.10
2022-10-07T04:16:33.694Z,8.10
2022-10-07T04:19:06.032Z,8.10
2022-10-07T04:21:34.088Z,8.10
2022-10-07T04:24:01.711Z,8.10
2022-10-07T04:26:30.493Z,8.10
2022-10-07T04:29:00.128Z,8.00
2022-10-07T04:31:28.168Z,8.00
2022-10-07T04:34:00.393Z,8.00
2022-10-07T04:36:34.830Z,7.90
2022-10-07T04:39:05.708Z,7.90
2022-10-07T04:41:38.999Z,7.90
2022-10-07T04:44:11.927Z,7.90
2022-10-07T04:46:49.045Z,7.90
2022-10-07T04:49:18.129Z,7.90
2022-10-07T04:54:31.963Z,7.90
2022-10-07T04:57:03.186Z,7.90
2022-10-07T04:59:32.586Z,7.80
2022-10-07T05:02:02.067Z,7.80
2022-10-07T05:04:30.850Z,7.80
2022-10-07T05:06:59.443Z,7.80
2022-10-07T05:09:27.181Z,7.80
2022-10-07T05:11:58.094Z,7.70
2022-10-07T05:14:26.849Z,7.70
2022-10-07T05:16:56.708Z,7.70
2022-10-07T05:19:28.230Z,7.70
2022-10-07T05:21:56.768Z,7.60
2022-10-07T05:24:26.244Z,7.60
2022-10-07T05:26:54.568Z,7.60
2022-10-07T05:29:22.938Z,7.60
2022-10-07T05:31:54.181Z,7.60
2022-10-07T05:34:25.575Z,7.60
2022-10-07T05:36:54.729Z,7.60
2022-10-07T05:39:23.053Z,7.60
2022-10-07T05:41:55.421Z,7.60
2022-10-07T05:44:27.547Z,7.60
2022-10-07T05:46:59.060Z,7.60
2022-10-07T05:49:27.884Z,7.60
2022-10-07T05:51:56.827Z,7.60
2022-10-07T05:54:24.721Z,7.60
2022-10-07T05:56:53.977Z,7.60
2022-10-07T05:59:25.737Z,7.60
2022-10-07T06:01:57.481Z,7.70
2022-10-07T06:04:27.507Z,7.70
2022-10-07T06:06:54.953Z,7.60
2022-10-07T06:09:41.085Z,7.70
2022-10-07T06:12:33.278Z,7.70
2022-10-07T06:15:05.391Z,7.70
2022-10-07T06:17:33.889Z,7.70
2022-10-07T06:20:08.964Z,7.70
2022-10-07T06:22:36.439Z,7.70
2022-10-07T06:25:04.589Z,7.80
2022-10-07T06:27:33.263Z,7.90
2022-10-07T06:30:00.823Z,7.90
2022-10-07T06:32:29.717Z,7.90
2022-10-07T06:34:57.450Z,8.00
2022-10-07T06:37:30.656Z,8.10
2022-10-07T06:40:01.172Z,8.20
2022-10-07T06:42:31.667Z,8.30
2022-10-07T06:45:20.599Z,8.40
2022-10-07T06:47:53.007Z,8.50
2022-10-07T06:50:21.561Z,8.60
2022-10-07T06:52:50.497Z,8.70
2022-10-07T06:55:18.333Z,8.90
2022-10-07T06:57:46.556Z,9.00
2022-10-07T07:00:17.526Z,9.10
2022-10-07T07:02:45.882Z,9.30
2022-10-07T07:05:17.992Z,9.40
2022-10-07T07:07:47.321Z,9.50
2022-10-07T07:10:17.835Z,9.70
2022-10-07T07:12:48.850Z,9.80
2022-10-07T07:15:17.362Z,10.00
2022-10-07T07:17:45.472Z,10.20
2022-10-07T07:20:13.395Z,10.40
2022-10-07T07:22:41.838Z,10.60
2022-10-07T07:25:10.369Z,10.80
2022-10-07T07:27:40.148Z,11.00
2022-10-07T07:30:11.248Z,11.20
2022-10-07T07:32:39.583Z,11.30
2022-10-07T07:35:07.734Z,11.50
2022-10-07T07:37:36.053Z,11.70
2022-10-07T07:40:03.779Z,11.90
2022-10-07T07:42:33.553Z,12.10
2022-10-07T07:45:02.301Z,12.30
2022-10-07T07:47:30.264Z,12.40
2022-10-07T07:49:57.605Z,12.70
2022-10-07T07:52:29.918Z,12.90
2022-10-07T07:54:59.866Z,13.10
2022-10-07T07:57:28.418Z,13.40
2022-10-07T07:59:58.372Z,13.60
2022-10-07T08:02:29.036Z,13.90
2022-10-07T08:05:01.094Z,14.10
2022-10-07T08:07:28.874Z,14.30
2022-10-07T08:09:56.896Z,14.60
2022-10-07T08:12:24.579Z,14.80
2022-10-07T08:14:53.883Z,15.00
2022-10-07T08:17:23.467Z,15.20
2022-10-07T08:19:54.551Z,15.50
2022-10-07T08:22:22.056Z,15.80
2022-10-07T08:24:51.535Z,16.10
2022-10-07T08:27:21.305Z,16.30
2022-10-07T08:29:49.555Z,16.50
2022-10-07T08:32:17.039Z,16.80
2022-10-07T08:34:44.499Z,17.00
2022-10-07T08:37:13.237Z,17.20
2022-10-07T08:39:40.604Z,17.50
2022-10-07T08:42:15.118Z,17.80
2022-10-07T08:44:47.883Z,18.00
2022-10-07T08:47:22.761Z,18.30
2022-10-07T08:50:02.262Z,18.60
2022-10-07T08:52:40.873Z,18.90
2022-10-07T08:55:18.655Z,19.10
2022-10-07T08:58:04.112Z,19.40
2022-10-07T09:00:40.878Z,19.60
2022-10-07T09:03:24.960Z,19.80
2022-10-07T09:05:55.638Z,20.10
2022-10-07T09:08:30.089Z,20.30
2022-10-07T09:11:15.580Z,20.50
2022-10-07T09:13:48.037Z,20.80
2022-10-07T09:16:21.348Z,21.00
2022-10-07T09:18:53.469Z,21.20
2022-10-07T09:21:23.620Z,21.50
2022-10-07T09:23:56.672Z,21.60
2022-10-07T09:26:26.475Z,21.80
2022-10-07T09:28:53.998Z,22.00
2022-10-07T09:31:23.155Z,22.20
2022-10-07T09:33:52.958Z,22.40
2022-10-07T09:36:20.528Z,22.60
2022-10-07T09:38:50.261Z,22.90
2022-10-07T09:41:22.936Z,23.20
2022-10-07T09:44:06.003Z,23.50
2022-10-07T09:46:44.361Z,23.70
2022-10-07T09:49:46.280Z,23.80
2022-10-07T09:52:19.300Z,24.00
2022-10-07T09:54:48.583Z,24.10
2022-10-07T09:57:33.895Z,24.30
2022-10-07T10:00:24.214Z,24.40
2022-10-07T10:02:55.020Z,24.50
2022-10-07T10:05:26.806Z,24.60
2022-10-07T10:07:59.912Z,24.70
2022-10-07T10:10:29.816Z,24.90
2022-10-07T10:13:01.156Z,25.10
2022-10-07T10:15:40.516Z,25.20
2022-10-07T10:18:33.654Z,25.30
2022-10-07T10:21:20.646Z,25.40
2022-10-07T10:23:49.955Z,25.60
2022-10-07T10:26:34.351Z,25.80
2022-10-07T10:29:31.365Z,25.90
2022-10-07T10:32:34.208Z,26.00
2022-10-07T10:35:06.672Z,25.90
2022-10-07T10:37:50.324Z,25.90
2022-10-07T10:40:23.257Z,25.90
2022-10-07T10:42:57.766Z,26.00
2022-10-07T10:45:35.140Z,26.00
2022-10-07T10:48:21.671Z,25.80
2022-10-07T10:50:56.085Z,25.60
2022-10-07T10:53:35.586Z,25.50
2022-10-07T10:56:20.938Z,25.50
2022-10-07T10:59:03.301Z,25.60
2022-10-07T11:01:36.676Z,25.50
2022-10-07T11:04:29.955Z,25.70
2022-10-07T11:07:02.374Z,25.80
2022-10-07T11:09:36.855Z,25.80
2022-10-07T11:12:21.164Z,25.50
2022-10-07T11:14:55.735Z,25.30
2022-10-07T11:17:31.581Z,25.00
2022-10-07T11:20:11.796Z,24.80
2022-10-07T11:22:45.154Z,24.60
2022-10-07T11:25:23.995Z,24.30
2022-10-07T11:27:54.333Z,24.10
2022-10-07T11:30:23.548Z,23.90
2022-10-07T11:32:58.911Z,23.80
2022-10-07T11:35:29.513Z,23.60
2022-10-07T11:38:03.158Z,23.40
2022-10-07T11:40:34.623Z,23.30
2022-10-07T11:43:09.028Z,23.10
2022-10-07T11:45:42.415Z,22.80
2022-10-07T11:48:16.728Z,22.80
2022-10-07T11:50:52.080Z,23.00
2022-10-07T11:53:23.071Z,23.10
2022-10-07T11:55:58.350Z,23.30
2022-10-07T11:58:27.384Z,23.60
2022-10-07T12:01:31.275Z,23.80
2022-10-07T12:04:22.802Z,24.10
2022-10-07T12:07:23.461Z,24.30
2022-10-07T12:09:55.676Z,24.30
2022-10-07T12:12:23.737Z,24.50
2022-10-07T12:15:02.178Z,24.60
2022-10-07T12:17:30.357Z,24.70
2022-10-07T12:20:45.501Z,24.70
2022-10-07T12:23:42.857Z,24.60
2022-10-07T12:26:50.358Z,24.40
2022-10-07T12:29:22.416Z,24.10
2022-10-07T12:31:50.420Z,24.00
2022-10-07T12:34:33.539Z,23.80
2022-10-07T12:37:38.528Z,23.40
2022-10-07T12:40:16.729Z,23.10
2022-10-07T12:42:51.923Z,23.00
2022-10-07T12:45:21.833Z,22.90
2022-10-07T12:47:52.412Z,22.90
2022-10-07T12:50:21.165Z,22.90
2022-10-07T12:52:52.960Z,22.60
2022-10-07T12:55:29.524Z,22.60
2022-10-07T12:58:17.059Z,22.80
2022-10-07T13:01:03.040Z,22.90
2022-10-07T13:04:01.089Z,22.80
2022-10-07T13:07:05.150Z,22.90
2022-10-07T13:09:59.498Z,22.90
2022-10-07T13:12:46.704Z,23.00
2022-10-07T13:15:29.147Z,23.10
2022-10-07T13:18:03.801Z,23.30
2022-10-07T13:20:41.864Z,23.60
2022-10-07T13:23:15.388Z,23.80
2022-10-07T13:25:49.438Z,24.00
2022-10-07T13:28:22.323Z,24.10
2022-10-07T13:30:51.193Z,24.30
2022-10-07T13:33:25.292Z,24.50
2022-10-07T13:36:06.822Z,24.90
2022-10-07T13:38:35.073Z,25.10
2022-10-07T13:41:07.730Z,25.30
2022-10-07T13:43:37.511Z,25.60
2022-10-07T13:46:09.247Z,25.80
2022-10-07T13:48:45.416Z,26.20
2022-10-07T13:51:24.412Z,26.50
2022-10-07T13:53:54.873Z,26.70
2022-10-07T13:56:25.267Z,27.00
2022-10-07T13:58:55.584Z,27.20
2022-10-07T14:01:26.860Z,27.40
2022-10-07T14:04:02.354Z,27.60
2022-10-07T14:06:38.227Z,27.80
2022-10-07T14:09:17.155Z,27.70
2022-10-07T14:11:46.598Z,27.70
2022-10-07T14:14:21.629Z,27.50
2022-10-07T14:16:56.911Z,27.50
2022-10-07T14:19:24.773Z,27.30
2022-10-07T14:21:52.381Z,27.10
2022-10-07T14:24:20.638Z,27.00
2022-10-07T14:26:48.092Z,26.90
2022-10-07T14:29:32.281Z,26.50
2022-10-07T14:32:28.462Z,26.40
2022-10-07T14:35:14.368Z,26.10
2022-10-07T14:37:41.821Z,25.80
2022-10-07T14:40:18.069Z,25.70
2022-10-07T14:42:45.788Z,25.50
2022-10-07T14:45:18.231Z,25.20
2022-10-07T14:47:45.858Z,24.90
2022-10-07T14:50:13.556Z,24.80
2022-10-07T14:52:45.236Z,24.60
2022-10-07T14:55:16.929Z,24.10
2022-10-07T14:57:45.153Z,23.70
2022-10-07T15:00:15.049Z,23.50
2022-10-07T15:02:44.531Z,23.30
2022-10-07T15:05:13.087Z,23.10
2022-10-07T15:07:40.590Z,23.00
2022-10-07T15:10:14.557Z,22.70
2022-10-07T15:12:44.417Z,22.50
2022-10-07T15:15:12.933Z,22.20
2022-10-07T15:17:41.926Z,21.90
2022-10-07T15:20:13.912Z,21.80
2022-10-07T15:22:41.833Z,21.70
2022-10-07T15:25:10.868Z,21.60
2022-10-07T15:27:38.326Z,21.50
2022-10-07T15:30:07.247Z,21.30
2022-10-07T15:32:34.884Z,21.10
2022-10-07T15:35:02.441Z,20.90
2022-10-07T15:37:32.335Z,20.70
2022-10-07T15:39:59.789Z,20.60
2022-10-07T15:42:27.144Z,20.40
2022-10-07T15:44:54.630Z,20.30
2022-10-07T15:47:22.125Z,20.20
2022-10-07T15:49:49.595Z,20.00
2022-10-07T15:52:17.043Z,19.90
2022-10-07T15:54:46.555Z,19.60
2022-10-07T15:57:14.403Z,19.50
2022-10-07T15:59:42.282Z,19.40
2022-10-07T16:02:14.883Z,19.30
2022-10-07T16:04:42.915Z,19.20
2022-10-07T16:07:12.056Z,19.10
2022-10-07T16:09:39.488Z,19.00
2022-10-07T16:12:08.916Z,18.90
2022-10-07T16:14:36.273Z,18.80
2022-10-07T16:17:04.233Z,18.70
2022-10-07T16:19:31.576Z,18.60
2022-10-07T16:21:58.998Z,18.50
2022-10-07T16:24:27.534Z,18.40
2022-10-07T16:26:57.248Z,18.30
2022-10-07T16:29:44.756Z,18.20
2022-10-07T16:32:12.182Z,18.10
2022-10-07T16:34:43.581Z,17.90
2022-10-07T16:37:11.649Z,17.80
2022-10-07T16:39:39.090Z,17.70
2022-10-07T16:42:06.807Z,17.60
2022-10-07T16:44:35.871Z,17.50
2022-10-07T16:47:03.337Z,17.40
2022-10-07T16:49:30.729Z,17.30
2022-10-07T16:51:58.657Z,17.20
2022-10-07T16:54:26.148Z,17.10
2022-10-07T16:56:53.694Z,16.90
2022-10-07T16:59:23.690Z,16.80
2022-10-07T17:01:55.596Z,16.70
2022-10-07T17:04:24.497Z,16.70
2022-10-07T17:06:52.559Z,16.50
2022-10-07T17:09:21.746Z,16.50
2022-10-07T17:11:49.376Z,16.40
2022-10-07T17:14:18.261Z,16.30
2022-10-07T17:16:47.488Z,16.20
2022-10-07T17:19:18.794Z,16.10
2022-10-07T17:21:47.749Z,16.00
2022-10-07T17:24:16.050Z,15.90
2022-10-07T17:26:43.530Z,15.90
2022-10-07T17:29:12.605Z,15.70
2022-10-07T17:31:43.221Z,15.70
2022-10-07T17:34:11.968Z,15.60
2022-10-07T17:36:40.686Z,15.50
2022-10-07T17:39:08.422Z,15.40
2022-10-07T17:41:37.395Z,15.40
2022-10-07T17:44:10.274Z,15.30
2022-10-07T17:46:39.384Z,15.20
2022-10-07T17:49:08.572Z,15.10
2022-10-07T17:51:37.623Z,15.10
2022-10-07T17:54:06.837Z,15.00
2022-10-07T17:56:34.803Z,14.90
2022-10-07T17:59:02.611Z,14.80
2022-10-07T18:01:32.818Z,14.80
2022-10-07T18:04:01.456Z,14.70
2022-10-07T18:06:33.647Z,14.60
2022-10-07T18:09:03.176Z,14.60
2022-10-07T18:11:51.139Z,14.50
2022-10-07T18:14:37.039Z,14.50
2022-10-07T18:17:05.175Z,14.40
2022-10-07T18:19:32.527Z,14.30
2022-10-07T18:21:59.984Z,14.30
2022-10-07T18:24:28.704Z,14.20
2022-10-07T18:26:59.337Z,14.10
2022-10-07T18:29:27.112Z,14.10
2022-10-07T18:31:54.598Z,14.00
2022-10-07T18:34:22.331Z,14.00
2022-10-07T18:36:52.689Z,13.90
2022-10-07T18:39:23.464Z,13.90
2022-10-07T18:41:50.832Z,13.80
2022-10-07T18:44:19.553Z,13.70
2022-10-07T18:46:48.446Z,13.70
2022-10-07T18:49:16.738Z,13.60
2022-10-07T18:51:46.620Z,13.60
2022-10-07T18:54:14.176Z,13.50
2022-10-07T18:56:41.865Z,13.50
2022-10-07T18:59:10.002Z,13.50
2022-10-07T19:01:39.430Z,13.40
2022-10-07T19:04:08.465Z,13.40
2022-10-07T19:06:37.663Z,13.40
2022-10-07T19:09:07.216Z,13.30
2022-10-07T19:11:34.748Z,13.30
2022-10-07T19:14:02.275Z,13.20
2022-10-07T19:16:35.039Z,13.20
2022-10-07T19:19:05.355Z,13.10
2022-10-07T19:21:34.358Z,13.10
2022-10-07T19:24:02.768Z,13.10
2022-10-07T19:26:32.625Z,13.00
2022-10-07T19:29:00.464Z,13.00
2022-10-07T19:31:30.004Z,13.00
2022-10-07T19:34:02.433Z,12.90
2022-10-07T19:36:33.172Z,12.90
2022-10-07T19:39:01.324Z,12.90
2022-10-07T19:41:30.583Z,12.90
2022-10-07T19:43:58.631Z,12.80
2022-10-07T19:46:30.156Z,12.80
2022-10-07T19:48:59.274Z,12.80
2022-10-07T19:51:28.504Z,12.80
2022-10-07T19:53:58.407Z,12.80
2022-10-07T19:56:28.142Z,12.70
2022-10-07T19:58:56.897Z,12.70
2022-10-07T20:01:26.211Z,12.70
2022-10-07T20:03:57.595Z,12.60
2022-10-07T20:06:25.514Z,12.60
2022-10-07T20:08:54.021Z,12.50
2022-10-07T20:11:23.763Z,12.50
2022-10-07T20:13:54.228Z,12.50
2022-10-07T20:16:24.324Z,12.50
2022-10-07T20:18:58.490Z,12.50
2022-10-07T20:21:25.848Z,12.50
2022-10-07T20:23:54.702Z,12.40
2022-10-07T20:26:25.726Z,12.40
2022-10-07T20:28:54.749Z,12.40
2022-10-07T20:31:24.632Z,12.30
2022-10-07T20:33:53.972Z,12.30
2022-10-07T20:36:23.546Z,12.30
2022-10-07T20:39:12.753Z,12.30
2022-10-07T20:42:07.987Z,12.30
2022-10-07T20:44:36.662Z,12.20
2022-10-07T20:47:04.428Z,12.20
2022-10-07T20:49:32.881Z,12.20
2022-10-07T20:52:02.117Z,12.20
2022-10-07T20:54:30.954Z,12.20
2022-10-07T20:57:00.176Z,12.20
2022-10-07T20:59:28.824Z,12.20
2022-10-07T21:01:56.589Z,12.10
2022-10-07T21:04:27.093Z,12.10
2022-10-07T21:06:55.694Z,12.10
2022-10-07T21:09:23.985Z,12.10
2022-10-07T21:11:51.558Z,12.00
2022-10-07T21:14:20.634Z,12.00
2022-10-07T21:16:48.344Z,12.00
2022-10-07T21:19:17.046Z,12.00
2022-10-07T21:21:44.538Z,12.00
2022-10-07T21:24:11.902Z,12.00
2022-10-07T21:26:39.249Z,12.00
2022-10-07T21:29:09.527Z,11.90
2022-10-07T21:31:38.220Z,12.00
2022-10-07T21:34:07.866Z,11.90
2022-10-07T21:36:37.341Z,11.90
2022-10-07T21:39:05.095Z,11.90
2022-10-07T21:41:34.845Z,11.90
2022-10-07T21:44:04.256Z,11.90
2022-10-07T21:46:32.925Z,11.80
2022-10-07T21:49:01.905Z,11.80
2022-10-07T21:51:32.407Z,11.70
2022-10-07T21:54:00.351Z,11.70
2022-10-07T21:56:29.885Z,11.70
2022-10-07T21:58:59.789Z,11.70
2022-10-07T22:01:27.644Z,11.70
2022-10-07T22:03:56.471Z,11.70
2022-10-07T22:06:45.012Z,11.70
2022-10-07T22:09:14.595Z,11.70
2022-10-07T22:11:42.071Z,11.70
2022-10-07T22:14:12.799Z,11.70
2022-10-07T22:16:41.238Z,11.70
2022-10-07T22:19:08.661Z,11.60
2022-10-07T22:21:40.163Z,11.70
2022-10-07T22:24:09.044Z,11.60
2022-10-07T22:26:39.077Z,11.60
2022-10-07T22:29:08.859Z,11.60
2022-10-07T22:31:36.644Z,11.60
2022-10-07T22:34:04.669Z,11.60
2022-10-07T22:36:32.405Z,11.60
2022-10-07T22:39:01.495Z,11.60
2022-10-07T22:41:29.537Z,11.60
2022-10-07T22:43:58.984Z,11.60
2022-10-07T22:46:27.933Z,11.50
2022-10-07T22:48:57.994Z,11.50
2022-10-07T22:51:29.531Z,11.50
2022-10-07T22:53:57.258Z,11.40
2022-10-07T22:56:28.272Z,11.50
2022-10-07T22:58:58.866Z,11.40
2022-10-07T23:01:31.260Z,11.40
2022-10-07T23:04:00.892Z,11.40
2022-10-07T23:06:29.537Z,11.40
2022-10-07T23:08:57.020Z,11.40
2022-10-07T23:11:27.401Z,11.40
2022-10-07T23:13:55.384Z,11.30
2022-10-07T23:16:25.068Z,11.30
2022-10-07T23:18:53.652Z,11.30
2022-10-07T23:21:23.049Z,11.30
2022-10-07T23:23:53.118Z,11.30
2022-10-07T23:26:23.074Z,11.30
2022-10-07T23:28:52.983Z,11.30
2022-10-07T23:31:22.524Z,11.30
2022-10-07T23:33:52.134Z,11.20
2022-10-07T23:36:21.640Z,11.20
2022-10-07T23:38:50.007Z,11.20
2022-10-07T23:41:20.079Z,11.20
2022-10-07T23:43:49.168Z,11.20
2022-10-07T23:46:21.245Z,11.10
2022-10-07T23:48:49.461Z,11.10
2022-10-07T23:51:18.991Z,11.10
2022-10-07T23:53:47.016Z,11.10
2022-10-07T23:56:14.692Z,11.10
2022-10-07T23:58:42.322Z,11.00
